Time;durP1;ratioP1;P1;durP2;ratioP2;P2;SDS_P1;SDS_P2;PMS_P1;PMS_P2;Temp;Humidity;BMP_temperature;BMP_pressure;BME280_temperature;BME280_humidity;BME280_pressure;Samples;Min_cycle;Max_cycle;Signal;HPM_P1;HPM_P2
2022/12/11 00:01:37;;;;;;;32.10;15.47;;;;;;;;;;5074800;28;20178;-60
2022/12/11 00:04:03;;;;;;;34.73;17.30;;;;;;;;;;5073752;28;20184;-61
2022/12/11 00:06:29;;;;;;;35.43;16.77;;;;;;;;;;5073154;28;20215;-62
2022/12/11 00:08:55;;;;;;;44.27;16.77;;;;;;;;;;5074353;28;20179;-62
2022/12/11 00:11:22;;;;;;;34.80;17.10;;;0.00;99.90;;;;;;5074458;28;20182;-62
2022/12/11 00:13:47;;;;;;;35.83;17.07;;;-0.40;99.90;;;;;;5073359;28;20177;-61
2022/12/11 00:16:13;;;;;;;43.10;18.97;;;;;;;;;;5070995;28;20179;-62
2022/12/11 00:18:39;;;;;;;34.87;15.90;;;-0.40;99.90;;;;;;5057036;28;20634;-61
2022/12/11 00:21:07;;;;;;;44.57;17.27;;;-0.10;99.90;;;;;;5070536;28;20193;-62
2022/12/11 00:23:34;;;;;;;37.13;17.87;;;-0.70;99.90;;;;;;5073019;28;20595;-63
2022/12/11 00:26:03;;;;;;;42.23;19.30;;;-1.10;99.90;;;;;;5074051;28;20233;-61
2022/12/11 00:28:29;;;;;;;40.13;18.53;;;-0.10;99.90;;;;;;5074094;28;20176;-61
2022/12/11 00:30:55;;;;;;;39.10;17.33;;;;;;;;;;5074052;28;20189;-61
2022/12/11 00:33:20;;;;;;;32.23;15.07;;;0.00;99.90;;;;;;5073980;28;20631;-62
2022/12/11 00:35:46;;;;;;;37.90;16.77;;;-0.20;99.90;;;;;;5073819;28;20284;-62
2022/12/11 00:38:15;;;;;;;33.80;14.10;;;0.00;99.90;;;;;;5074011;28;20187;-62
2022/12/11 00:40:41;;;;;;;33.67;17.07;;;;;;;;;;5073605;28;20184;-61
2022/12/11 00:43:07;;;;;;;34.00;17.10;;;;;;;;;;5073545;28;20182;-61
2022/12/11 00:45:37;;;;;;;39.87;15.30;;;-0.10;99.90;;;;;;5073309;28;20222;-61
2022/12/11 00:48:03;;;;;;;36.07;14.57;;;;;;;;;;5073618;28;20222;-62
2022/12/11 00:50:29;;;;;;;35.03;15.40;;;;;;;;;;5073052;28;20187;-62
2022/12/11 00:52:54;;;;;;;34.23;16.37;;;-0.10;99.90;;;;;;5073687;28;20179;-62
2022/12/11 00:55:20;;;;;;;38.03;17.43;;;;;;;;;;5073735;28;20172;-61
2022/12/11 00:57:46;;;;;;;50.53;18.37;;;0.30;99.90;;;;;;5073750;28;20172;-61
2022/12/11 01:00:12;;;;;;;36.90;17.03;;;0.10;99.90;;;;;;5073864;28;20668;-62
2022/12/11 01:02:38;;;;;;;36.20;15.90;;;0.40;99.90;;;;;;5073869;28;20169;-62
2022/12/11 01:05:04;;;;;;;38.47;16.93;;;;;;;;;;5073474;28;20647;-61
2022/12/11 01:07:30;;;;;;;38.97;17.87;;;0.20;99.90;;;;;;5073120;28;20215;-61
2022/12/11 01:12:40;;;;;;;44.87;20.87;;;;;;;;;;5073779;28;20748;-61
2022/12/11 01:15:06;;;;;;;44.10;21.07;;;;;;;;;;5073556;28;20200;-63
2022/12/11 01:17:32;;;;;;;41.57;17.93;;;0.10;99.90;;;;;;5073511;28;20638;-63
2022/12/11 01:19:58;;;;;;;42.47;19.60;;;;;;;;;;5073398;28;20281;-62
2022/12/11 01:22:24;;;;;;;51.43;21.17;;;;;;;;;;5073342;28;20182;-63
2022/12/11 01:24:50;;;;;;;41.23;19.77;;;;;;;;;;5072744;28;20212;-63
2022/12/11 01:27:16;;;;;;;42.50;18.80;;;;;;;;;;5069541;28;20275;-63
2022/12/11 01:29:42;;;;;;;37.40;18.63;;;;;;;;;;5083492;28;20177;-63
2022/12/11 01:32:08;;;;;;;40.53;18.17;;;;;;;;;;5065803;28;20193;-63
2022/12/11 01:34:34;;;;;;;34.80;17.70;;;;;;;;;;5066545;28;20304;-62
2022/12/11 01:37:00;;;;;;;39.37;17.97;;;;;;;;;;5071289;28;20191;-62
2022/12/11 01:39:25;;;;;;;38.37;18.03;;;0.60;99.90;;;;;;5072407;28;20180;-59
2022/12/11 01:41:56;;;;;;;37.47;18.67;;;0.90;99.90;;;;;;5072595;28;20643;-61
2022/12/11 01:44:22;;;;;;;38.27;18.37;;;;;;;;;;5072320;28;20176;-60
2022/12/11 01:46:48;;;;;;;37.57;18.23;;;1.00;99.90;;;;;;5072550;28;20349;-60
2022/12/11 01:49:17;;;;;;;34.10;17.53;;;0.80;99.90;;;;;;5072436;28;20177;-61
2022/12/11 01:51:56;;;;;;;38.83;18.10;;;0.80;99.90;;;;;;5072117;28;20176;-61
2022/12/11 01:54:24;;;;;;;31.40;15.87;;;0.80;99.90;;;;;;5072682;28;20308;-61
2022/12/11 01:56:53;;;;;;;28.33;14.97;;;0.90;99.90;;;;;;5072627;28;20210;-61
2022/12/11 01:59:23;;;;;;;33.10;16.17;;;0.80;99.90;;;;;;5071295;28;20633;-61
2022/12/11 02:01:59;;;;;;;37.53;15.03;;;0.70;99.90;;;;;;5072513;28;20184;-62
2022/12/11 02:04:25;;;;;;;40.80;16.43;;;;;;;;;;5072410;28;20180;-62
2022/12/11 02:06:51;;;;;;;35.23;16.60;;;;;;;;;;5072545;28;20177;-62
2022/12/11 02:09:28;;;;;;;34.70;15.87;;;0.70;99.90;;;;;;5072297;28;20237;-61
2022/12/11 02:12:11;;;;;;;34.30;15.33;;;0.60;99.90;;;;;;5072241;28;20172;-63
2022/12/11 02:15:01;;;;;;;27.27;15.23;;;0.70;99.90;;;;;;5071837;28;20311;-63
2022/12/11 02:17:40;;;;;;;30.60;15.13;;;0.70;99.90;;;;;;5072057;28;20184;-62
2022/12/11 02:20:20;;;;;;;31.77;14.43;;;0.60;99.90;;;;;;5071414;28;20207;-61
2022/12/11 02:23:01;;;;;;;29.97;14.40;;;0.60;99.90;;;;;;5070845;28;20172;-61
2022/12/11 02:25:44;;;;;;;30.83;14.93;;;0.70;99.90;;;;;;5060877;28;20258;-62
2022/12/11 02:28:30;;;;;;;26.77;13.13;;;0.50;99.90;;;;;;5061808;28;20198;-61
2022/12/11 02:31:08;;;;;;;32.43;15.33;;;0.90;99.90;;;;;;5069084;28;20673;-61
2022/12/11 02:33:46;;;;;;;33.53;15.60;;;0.70;99.90;;;;;;5052297;28;20197;-61
2022/12/11 02:36:15;;;;;;;31.77;14.20;;;0.80;99.90;;;;;;5060566;28;20354;-61
2022/12/11 02:38:42;;;;;;;32.90;15.03;;;1.10;99.90;;;;;;5062973;28;20185;-60
2022/12/11 02:41:10;;;;;;;36.83;16.10;;;0.90;99.90;;;;;;5059232;28;20546;-61
2022/12/11 02:43:38;;;;;;;35.47;16.73;;;1.00;99.90;;;;;;5071070;28;20176;-61
2022/12/11 02:46:06;;;;;;;35.90;17.27;;;1.00;99.90;;;;;;5071084;28;20314;-61
2022/12/11 02:48:33;;;;;;;41.70;18.27;;;0.90;99.90;;;;;;5071102;28;20237;-60
2022/12/11 02:51:02;;;;;;;39.73;17.13;;;1.00;99.90;;;;;;5071345;28;20183;-60
2022/12/11 02:53:30;;;;;;;44.43;19.30;;;0.80;99.90;;;;;;5070886;28;20255;-60
2022/12/11 02:56:25;;;;;;;42.13;19.67;;;1.00;99.90;;;;;;5071344;28;20230;-60
2022/12/11 02:58:58;;;;;;;43.30;18.57;;;0.80;99.90;;;;;;5071194;28;20185;-60
2022/12/11 03:01:25;;;;;;;46.50;18.53;;;1.00;99.90;;;;;;5071381;28;20194;-59
2022/12/11 03:03:52;;;;;;;38.37;18.00;;;0.60;99.90;;;;;;5071403;28;20217;-60
2022/12/11 03:06:23;;;;;;;37.87;18.20;;;0.80;99.90;;;;;;5071363;28;20218;-60
2022/12/11 03:08:50;;;;;;;36.13;17.23;;;0.80;99.90;;;;;;5071637;28;20855;-61
2022/12/11 03:11:17;;;;;;;36.80;17.87;;;0.50;99.90;;;;;;5071348;28;20649;-62
2022/12/11 03:13:43;;;;;;;36.43;17.67;;;;;;;;;;5071259;28;20266;-62
2022/12/11 03:16:23;;;;;;;36.33;16.83;;;0.80;99.90;;;;;;5070032;28;20180;-62
2022/12/11 03:19:11;;;;;;;38.20;16.40;;;0.80;99.90;;;;;;5071095;28;20179;-62
2022/12/11 03:21:43;;;;;;;38.23;17.30;;;1.10;99.90;;;;;;5071081;28;20701;-62
2022/12/11 03:24:18;;;;;;;35.30;16.67;;;1.40;99.90;;;;;;5071338;28;20177;-60
2022/12/11 03:26:54;;;;;;;33.77;16.30;;;0.90;99.90;;;;;;5070999;28;20211;-61
2022/12/11 03:29:28;;;;;;;37.90;17.43;;;1.00;99.90;;;;;;5070275;28;20173;-60
2022/12/11 03:32:07;;;;;;;33.90;16.80;;;1.10;99.90;;;;;;5070453;28;20257;-61
2022/12/11 03:34:49;;;;;;;38.77;18.10;;;1.10;99.90;;;;;;5067734;28;20239;-61
2022/12/11 03:37:16;;;;;;;35.33;16.60;;;;;;;;;;5068788;28;20198;-61
2022/12/11 03:39:47;;;;;;;36.00;17.50;;;1.10;99.90;;;;;;5065435;28;20188;-61
2022/12/11 03:42:15;;;;;;;35.27;16.67;;;1.00;99.90;;;;;;5063080;28;20535;-61
2022/12/11 03:44:46;;;;;;;33.43;16.70;;;1.10;99.90;;;;;;5061575;28;20176;-61
2022/12/11 03:47:16;;;;;;;32.60;16.50;;;1.10;99.90;;;;;;5052626;28;20640;-62
2022/12/11 03:49:44;;;;;;;33.20;15.97;;;1.20;99.90;;;;;;5070790;28;20177;-61
2022/12/11 03:52:11;;;;;;;30.93;16.23;;;1.10;99.90;;;;;;5070550;28;20543;-61
2022/12/11 03:54:40;;;;;;;30.93;15.93;;;1.10;99.90;;;;;;5070491;28;20211;-62
2022/12/11 03:57:08;;;;;;;29.67;15.17;;;0.90;99.90;;;;;;5070963;28;20164;-61
2022/12/11 03:59:34;;;;;;;31.30;15.57;;;;;;;;;;5070162;28;20188;-61
2022/12/11 04:02:00;;;;;;;34.53;16.83;;;1.00;99.90;;;;;;5070427;28;20255;-61
2022/12/11 04:04:26;;;;;;;28.97;14.33;;;1.10;99.90;;;;;;5070383;28;20260;-61
2022/12/11 04:06:51;;;;;;;32.87;15.57;;;1.00;99.90;;;;;;5070702;28;20262;-61
2022/12/11 04:09:17;;;;;;;28.97;14.77;;;1.30;99.90;;;;;;5070304;28;20177;-61
2022/12/11 04:11:43;;;;;;;31.80;16.07;;;;;;;;;;5070825;28;20250;-61
2022/12/11 04:16:59;;;;;;;29.93;15.10;;;1.50;99.90;;;;;;5071043;28;20227;-61
2022/12/11 04:25:01;;;;;;;29.30;14.73;;;1.30;99.90;;;;;;5056483;28;20242;-61
2022/12/11 04:30:14;;;;;;;26.93;13.10;;;-0.10;99.90;;;;;;5061423;28;20190;-61
2022/12/11 04:32:39;;;;;;;23.83;12.37;;;1.50;99.90;;;;;;5070453;28;20179;-60
2022/12/11 04:35:07;;;;;;;27.70;13.63;;;1.50;99.90;;;;;;5069924;28;20278;-63
2022/12/11 04:37:34;;;;;;;29.83;14.13;;;;;;;;;;5070392;28;20651;-62
2022/12/11 04:40:00;;;;;;;28.13;13.83;;;;;;;;;;5070213;28;20247;-62
2022/12/11 04:42:25;;;;;;;26.67;14.90;;;1.60;99.90;;;;;;5070515;28;20620;-62
2022/12/11 04:44:51;;;;;;;28.10;14.17;;;;;;;;;;5073244;28;20176;-62
2022/12/11 04:47:17;;;;;;;30.33;15.20;;;1.30;99.90;;;;;;5059969;28;20216;-61
2022/12/11 04:49:43;;;;;;;30.50;14.97;;;;;;;;;;5067567;28;20179;-61
2022/12/11 04:52:09;;;;;;;29.07;15.00;;;0.90;99.90;;;;;;5072412;28;20184;-62
2022/12/11 04:54:34;;;;;;;27.40;14.27;;;1.30;99.90;;;;;;5072318;28;20172;-62
2022/12/11 04:57:01;;;;;;;29.07;14.23;;;;;;;;;;5072989;28;20214;-62
2022/12/11 04:59:27;;;;;;;25.50;14.00;;;;;;;;;;5073386;28;20640;-62
2022/12/11 05:01:53;;;;;;;27.10;14.20;;;;;;;;;;5073615;28;20216;-62
2022/12/11 05:04:19;;;;;;;35.97;14.63;;;;;;;;;;5073406;28;20195;-61
2022/12/11 05:06:45;;;;;;;29.80;15.43;;;;;;;;;;5073303;28;20675;-62
2022/12/11 05:09:12;;;;;;;29.90;14.73;;;1.70;99.90;;;;;;5073222;28;20177;-61
2022/12/11 05:11:38;;;;;;;24.73;13.33;;;1.80;99.90;;;;;;5073335;28;20275;-59
2022/12/11 05:14:04;;;;;;;24.30;11.13;;;1.50;99.90;;;;;;5073478;28;20664;-59
2022/12/11 05:16:29;;;;;;;25.57;12.20;;;1.20;99.90;;;;;;5073466;28;20179;-60
2022/12/11 05:18:55;;;;;;;23.53;10.73;;;1.30;99.90;;;;;;5072203;28;20180;-61
2022/12/11 05:21:21;;;;;;;22.10;11.50;;;;;;;;;;5073251;28;20564;-60
2022/12/11 05:23:47;;;;;;;23.03;12.43;;;1.20;99.90;;;;;;5073210;28;20572;-61
2022/12/11 05:26:16;;;;;;;23.93;12.37;;;1.50;99.90;;;;;;5073026;28;20346;-61
2022/12/11 05:28:42;;;;;;;24.73;12.47;;;1.40;99.90;;;;;;5073196;28;20509;-61
2022/12/11 05:31:17;;;;;;;23.10;12.00;;;1.50;99.90;;;;;;5073395;28;20168;-61
2022/12/11 05:33:44;;;;;;;21.90;11.53;;;1.50;99.90;;;;;;5073147;28;20180;-61
2022/12/11 05:36:28;;;;;;;27.47;11.87;;;1.50;99.90;;;;;;5072990;28;20697;-62
2022/12/11 05:38:54;;;;;;;22.87;12.30;;;1.50;99.90;;;;;;5059428;28;20674;-61
2022/12/11 05:41:22;;;;;;;38.47;12.23;;;1.20;99.90;;;;;;5083380;28;20271;-61
2022/12/11 05:43:47;;;;;;;22.63;11.83;;;1.40;99.90;;;;;;5070991;28;20627;-61
2022/12/11 05:46:22;;;;;;;23.83;11.83;;;1.50;99.90;;;;;;5072042;28;20204;-60
2022/12/11 05:48:49;;;;;;;24.70;12.20;;;1.30;99.90;;;;;;5071975;28;20200;-60
2022/12/11 05:51:16;;;;;;;26.57;12.73;;;1.50;99.90;;;;;;5069776;28;20204;-60
2022/12/11 05:53:44;;;;;;;24.77;13.73;;;1.40;99.90;;;;;;5055230;28;20173;-60
2022/12/11 05:56:12;;;;;;;26.47;12.77;;;1.30;99.90;;;;;;5066949;28;20176;-60
2022/12/11 05:58:38;;;;;;;26.27;12.77;;;;;;;;;;5071559;28;20181;-60
2022/12/11 06:01:10;;;;;;;24.47;13.00;;;1.40;99.90;;;;;;5072160;28;20172;-60
2022/12/11 06:03:37;;;;;;;23.57;12.20;;;1.50;99.90;;;;;;5072584;28;20176;-59
2022/12/11 06:06:06;;;;;;;23.87;12.13;;;1.40;99.90;;;;;;5072162;28;20590;-60
2022/12/11 06:08:32;;;;;;;19.47;11.30;;;1.30;99.90;;;;;;5072180;28;20208;-59
2022/12/11 06:10:58;;;;;;;23.17;12.10;;;1.60;99.90;;;;;;5071982;28;20178;-60
2022/12/11 06:13:24;;;;;;;24.20;12.33;;;;;;;;;;5071987;28;20212;-60
2022/12/11 06:15:50;;;;;;;21.97;11.83;;;1.60;99.90;;;;;;5071789;28;20260;-60
2022/12/11 06:18:16;;;;;;;23.40;12.17;;;;;;;;;;5071982;28;20677;-57
2022/12/11 06:20:42;;;;;;;23.30;11.40;;;;;;;;;;5070350;28;20177;-60
2022/12/11 06:23:08;;;;;;;24.30;11.33;;;;;;;;;;5071429;28;20580;-59
2022/12/11 06:25:35;;;;;;;23.53;10.77;;;;;;;;;;5071611;28;20332;-60
2022/12/11 06:28:01;;;;;;;18.57;9.93;;;;;;;;;;5072166;28;20226;-60
2022/12/11 06:30:27;;;;;;;20.27;10.23;;;;;;;;;;5071728;28;20275;-59
2022/12/11 06:32:52;;;;;;;21.43;10.67;;;1.00;99.90;;;;;;5071343;28;20707;-60
2022/12/11 06:35:18;;;;;;;22.70;10.90;;;1.30;99.90;;;;;;5071756;28;20216;-60
2022/12/11 06:37:44;;;;;;;20.10;10.83;;;1.10;99.90;;;;;;5071655;28;20251;-59
2022/12/11 06:40:11;;;;;;;21.17;11.23;;;1.30;99.90;;;;;;5071533;28;20647;-59
2022/12/11 06:42:37;;;;;;;25.67;11.30;;;1.50;99.90;;;;;;5070907;28;20581;-59
2022/12/11 06:45:03;;;;;;;22.63;11.37;;;0.00;99.90;;;;;;5071064;28;20694;-60
2022/12/11 06:47:29;;;;;;;20.83;11.57;;;;;;;;;;5070751;28;20194;-60
2022/12/11 06:49:56;;;;;;;19.83;11.23;;;1.50;99.90;;;;;;5070882;28;20161;-60
2022/12/11 06:52:23;;;;;;;19.23;10.27;;;1.30;99.90;;;;;;5069269;28;20407;-60
2022/12/11 06:54:49;;;;;;;22.63;10.73;;;;;;;;;;5068525;28;20234;-60
2022/12/11 06:57:15;;;;;;;22.00;11.33;;;1.60;99.90;;;;;;5070597;28;20205;-59
2022/12/11 06:59:41;;;;;;;21.83;11.30;;;1.50;99.90;;;;;;5071111;28;20157;-61
2022/12/11 07:02:12;;;;;;;20.77;10.63;;;1.40;99.90;;;;;;5069830;28;20175;-61
2022/12/11 07:04:37;;;;;;;21.60;11.20;;;1.40;99.90;;;;;;5071417;28;20224;-59
2022/12/11 07:07:03;;;;;;;22.00;11.87;;;;;;;;;;5071241;28;20180;-62
2022/12/11 07:09:29;;;;;;;24.13;11.73;;;1.70;99.90;;;;;;5070150;28;20657;-62
2022/12/11 07:11:54;;;;;;;23.27;11.77;;;1.30;99.90;;;;;;5071381;28;20255;-59
2022/12/11 07:14:20;;;;;;;20.50;10.80;;;1.60;99.90;;;;;;5071246;28;20685;-60
2022/12/11 07:16:45;;;;;;;20.73;11.00;;;1.60;99.90;;;;;;5071118;28;20164;-60
2022/12/11 07:19:11;;;;;;;21.73;10.87;;;1.50;99.90;;;;;;5071330;28;20164;-60
2022/12/11 07:21:37;;;;;;;25.00;11.67;;;;;;;;;;5071148;28;20267;-60
2022/12/11 07:24:03;;;;;;;22.97;11.13;;;1.80;99.90;;;;;;5071168;28;20647;-59
2022/12/11 07:26:29;;;;;;;19.70;11.37;;;;;;;;;;5070997;28;20219;-60
2022/12/11 07:28:59;;;;;;;22.73;11.90;;;1.70;99.90;;;;;;5069680;28;20275;-59
2022/12/11 07:31:27;;;;;;;21.20;11.57;;;1.40;99.90;;;;;;5071036;28;20192;-59
2022/12/11 07:33:58;;;;;;;22.77;11.70;;;1.50;99.90;;;;;;5071006;28;20184;-59
2022/12/11 07:36:24;;;;;;;20.53;11.03;;;;;;;;;;5070665;28;20717;-60
2022/12/11 07:38:50;;;;;;;27.93;11.50;;;;;;;;;;5070477;28;20204;-60
2022/12/11 07:41:16;;;;;;;21.97;11.50;;;1.40;99.90;;;;;;5070610;28;20180;-60
2022/12/11 07:43:43;;;;;;;24.67;11.53;;;;;;;;;;5066485;28;20693;-60
2022/12/11 07:46:17;;;;;;;23.27;11.47;;;1.40;99.90;;;;;;5062761;28;20295;-60
2022/12/11 07:48:45;;;;;;;22.50;11.50;;;1.40;99.90;;;;;;5064247;28;20727;-60
2022/12/11 07:51:26;;;;;;;23.53;11.27;;;1.70;99.90;;;;;;5065268;28;20643;-60
2022/12/11 07:53:55;;;;;;;20.27;11.00;;;1.60;99.90;;;;;;5054075;28;20181;-61
2022/12/11 07:56:21;;;;;;;24.93;12.03;;;1.80;99.90;;;;;;5071132;28;20182;-60
2022/12/11 07:58:47;;;;;;;21.43;11.40;;;;;;;;;;5070313;28;20266;-60
2022/12/11 08:01:15;;;;;;;33.77;12.20;;;1.70;99.90;;;;;;5070409;28;20468;-61
2022/12/11 08:03:42;;;;;;;20.73;11.43;;;1.70;99.90;;;;;;5070975;28;20187;-61
2022/12/11 08:06:08;;;;;;;25.30;11.87;;;1.40;99.90;;;;;;5070377;28;20216;-60
2022/12/11 08:08:34;;;;;;;24.10;11.80;;;1.70;99.90;;;;;;5069040;28;20534;-59
2022/12/11 08:11:04;;;;;;;20.67;11.90;;;1.50;99.90;;;;;;5069955;28;20189;-59
2022/12/11 08:13:30;;;;;;;25.33;12.50;;;1.50;99.90;;;;;;5070325;28;20173;-60
2022/12/11 08:15:56;;;;;;;25.07;12.80;;;1.70;99.90;;;;;;5066112;28;20563;-60
2022/12/11 08:18:22;;;;;;;24.63;12.10;;;1.60;99.90;;;;;;5066241;28;20214;-61
2022/12/11 08:20:48;;;;;;;24.80;13.67;;;1.60;99.90;;;;;;5071003;28;20301;-60
2022/12/11 08:23:13;;;;;;;24.27;12.70;;;1.80;99.90;;;;;;5074527;28;20579;-61
2022/12/11 08:25:39;;;;;;;26.03;12.50;;;;;;;;;;5074234;28;20628;-61
2022/12/11 08:28:05;;;;;;;27.20;13.70;;;;;;;;;;5074422;28;20204;-60
2022/12/11 08:30:31;;;;;;;26.20;12.87;;;;;;;;;;5074385;28;20175;-60
2022/12/11 08:32:58;;;;;;;26.73;12.97;;;1.70;99.90;;;;;;5073163;28;20172;-60
2022/12/11 08:35:24;;;;;;;32.70;14.30;;;;;;;;;;5070366;28;20220;-60
2022/12/11 08:37:50;;;;;;;26.97;14.13;;;;;;;;;;5071219;28;20641;-61
2022/12/11 08:40:16;;;;;;;28.70;13.73;;;2.00;99.90;;;;;;5063406;28;20212;-60
2022/12/11 08:42:42;;;;;;;24.60;13.27;;;1.80;99.90;;;;;;5074038;28;20179;-60
2022/12/11 08:45:08;;;;;;;28.37;12.80;;;1.90;99.90;;;;;;5073895;28;20292;-60
2022/12/11 08:47:34;;;;;;;31.97;13.93;;;;;;;;;;5072869;28;20187;-59
2022/12/11 08:50:00;;;;;;;28.77;14.37;;;;;;;;;;5074011;28;20169;-60
2022/12/11 08:52:26;;;;;;;26.60;14.67;;;1.80;99.90;;;;;;5073928;28;20169;-60
2022/12/11 08:54:52;;;;;;;27.00;14.17;;;;;;;;;;5073846;28;20532;-60
2022/12/11 08:57:18;;;;;;;29.27;14.90;;;;;;;;;;5073651;28;20256;-60
2022/12/11 08:59:43;;;;;;;32.07;15.87;;;1.80;99.90;;;;;;5072958;28;20212;-60
2022/12/11 09:02:11;;;;;;;32.97;16.13;;;1.60;99.90;;;;;;5073823;28;20222;-59
2022/12/11 09:04:37;;;;;;;35.07;16.80;;;2.10;99.90;;;;;;5073500;28;20177;-60
2022/12/11 09:07:03;;;;;;;32.63;16.10;;;;;;;;;;5073378;28;20216;-62
2022/12/11 09:09:28;;;;;;;32.07;16.63;;;1.90;99.90;;;;;;5073085;28;20180;-62
2022/12/11 09:11:55;;;;;;;34.80;15.77;;;1.90;99.90;;;;;;5073000;28;20195;-62
2022/12/11 09:14:21;;;;;;;33.40;17.13;;;;;;;;;;5073188;28;20183;-61
2022/12/11 09:16:47;;;;;;;32.87;16.27;;;;;;;;;;5073076;28;20184;-62
2022/12/11 09:19:14;;;;;;;39.27;16.73;;;1.70;99.90;;;;;;5072052;28;20172;-62
2022/12/11 09:21:40;;;;;;;32.07;16.37;;;;;;;;;;5072907;28;20175;-59
2022/12/11 09:24:07;;;;;;;32.20;15.93;;;2.50;99.90;;;;;;5073374;28;20218;-62
2022/12/11 09:26:33;;;;;;;32.00;16.77;;;;;;;;;;5073301;28;20247;-61
2022/12/11 09:29:03;;;;;;;48.47;18.93;;;2.30;99.90;;;;;;5072363;28;20191;-61
2022/12/11 09:31:31;;;;;;;36.33;17.67;;;1.90;99.90;;;;;;5071811;28;20647;-61
2022/12/11 09:33:59;;;;;;;34.40;14.57;;;2.10;99.90;;;;;;5072371;28;20305;-61
2022/12/11 09:36:25;;;;;;;31.87;14.87;;;1.70;99.90;;;;;;5071954;28;20224;-61
2022/12/11 09:38:51;;;;;;;33.57;15.27;;;0.70;99.90;;;;;;5071418;28;20176;-61
2022/12/11 09:41:20;;;;;;;39.73;16.60;;;1.60;99.90;;;;;;5068983;28;20282;-62
2022/12/11 09:43:57;;;;;;;34.23;15.03;;;1.70;99.90;;;;;;5072803;28;20181;-60
2022/12/11 09:46:23;;;;;;;37.27;16.67;;;1.70;99.90;;;;;;5072883;28;20219;-59
2022/12/11 09:48:50;;;;;;;32.33;15.00;;;1.60;99.90;;;;;;5072717;28;20263;-59
2022/12/11 09:51:38;;;;;;;29.07;13.90;;;1.60;99.90;;;;;;5063424;28;20180;-58
2022/12/11 09:54:04;;;;;;;35.37;15.27;;;-0.10;99.90;;;;;;5071829;28;20230;-58
2022/12/11 09:56:53;;;;;;;32.23;15.57;;;1.70;99.90;;;;;;5072462;28;20176;-59
2022/12/11 09:59:28;;;;;;;36.27;16.00;;;1.60;99.90;;;;;;5071462;28;20173;-60
2022/12/11 10:01:57;;;;;;;36.83;18.13;;;1.90;99.90;;;;;;5072175;28;20180;-61
2022/12/11 10:04:51;;;;;;;34.53;16.80;;;1.60;99.90;;;;;;5072096;28;20203;-59
2022/12/11 10:07:29;;;;;;;36.73;17.57;;;1.80;99.90;;;;;;5072398;28;20195;-59
2022/12/11 10:10:39;;;;;;;36.50;17.87;;;1.80;99.90;;;;;;5072043;28;20168;-59
2022/12/11 10:13:07;;;;;;;43.57;19.60;;;2.00;99.90;;;;;;5061146;28;20188;-59
2022/12/11 10:15:58;;;;;;;47.63;20.03;;;1.90;99.90;;;;;;5070894;28;20177;-59
2022/12/11 10:18:26;;;;;;;44.53;20.20;;;1.90;99.90;;;;;;5072368;28;20172;-59
2022/12/11 10:20:53;;;;;;;40.70;19.07;;;1.90;99.90;;;;;;5071802;28;20161;-59
2022/12/11 10:23:23;;;;;;;41.23;19.33;;;2.00;99.90;;;;;;5071611;28;20520;-58
2022/12/11 10:26:14;;;;;;;38.60;17.77;;;1.90;99.90;;;;;;5071976;28;20204;-60
2022/12/11 10:28:40;;;;;;;37.03;17.00;;;;;;;;;;5070834;28;20181;-61
2022/12/11 10:31:27;;;;;;;31.03;16.80;;;2.00;99.90;;;;;;5063904;28;20238;-60
2022/12/11 10:34:17;;;;;;;33.40;17.37;;;2.10;99.90;;;;;;5072058;28;20184;-61
2022/12/11 10:36:44;;;;;;;39.93;20.27;;;2.10;99.90;;;;;;5071354;28;20651;-61
2022/12/11 10:39:21;;;;;;;34.93;16.40;;;2.00;99.90;;;;;;5071743;28;20184;-60
2022/12/11 10:41:49;;;;;;;34.80;16.83;;;2.10;99.90;;;;;;5070730;28;20534;-61
2022/12/11 10:44:16;;;;;;;33.73;15.90;;;1.90;99.90;;;;;;5071689;28;20211;-61
2022/12/11 10:46:42;;;;;;;34.47;15.57;;;;;;;;;;5071130;28;20216;-61
2022/12/11 10:49:21;;;;;;;45.50;20.27;;;2.30;99.90;;;;;;5071564;28;20173;-61
2022/12/11 10:51:47;;;;;;;35.63;17.50;;;;;;;;;;5071044;28;20180;-60
2022/12/11 10:54:34;;;;;;;53.63;21.77;;;2.30;99.90;;;;;;5070899;28;20173;-59
2022/12/11 10:57:02;;;;;;;54.03;20.83;;;2.40;99.90;;;;;;5059625;28;20172;-59
2022/12/11 10:59:44;;;;;;;68.93;26.20;;;2.50;99.90;;;;;;5070839;28;20203;-59
2022/12/11 11:02:34;;;;;;;92.13;30.17;;;2.60;99.90;;;;;;5070400;28;20176;-59
2022/12/11 11:05:25;;;;;;;46.33;19.77;;;2.20;99.90;;;;;;5070273;28;20203;-59
2022/12/11 11:08:21;;;;;;;37.63;18.37;;;2.60;99.90;;;;;;5071236;28;20212;-59
2022/12/11 11:11:00;;;;;;;45.07;19.80;;;2.50;99.90;;;;;;5071522;28;20271;-59
2022/12/11 11:13:28;;;;;;;33.87;18.77;;;2.50;99.90;;;;;;5071317;28;20234;-59
2022/12/11 11:16:04;;;;;;;37.50;18.70;;;2.50;99.90;;;;;;5070528;28;20238;-60
2022/12/11 11:18:31;;;;;;;55.97;23.70;;;2.60;99.90;;;;;;5066507;28;20238;-60
2022/12/11 11:20:58;;;;;;;51.20;23.57;;;;;;;;;;5071368;28;20169;-60
2022/12/11 11:23:25;;;;;;;48.00;20.73;;;2.40;99.90;;;;;;5071180;28;20220;-60
2022/12/11 11:25:59;;;;;;;47.63;21.03;;;2.50;99.90;;;;;;5063291;28;20214;-60
2022/12/11 11:28:29;;;;;;;61.17;24.10;;;2.60;99.90;;;;;;5071103;28;20668;-60
2022/12/11 11:31:05;;;;;;;40.73;19.10;;;2.50;99.90;;;;;;5070991;28;20164;-60
2022/12/11 11:33:33;;;;;;;42.13;20.87;;;2.70;99.90;;;;;;5071052;28;20180;-60
2022/12/11 11:36:01;;;;;;;38.80;18.93;;;2.60;99.90;;;;;;5070919;28;20671;-60
2022/12/11 11:38:29;;;;;;;41.90;19.97;;;2.50;99.90;;;;;;5070945;28;20654;-60
2022/12/11 11:41:20;;;;;;;45.40;20.20;;;2.70;99.90;;;;;;5070910;28;20218;-61
2022/12/11 11:43:51;;;;;;;54.50;22.70;;;2.50;99.90;;;;;;5070951;28;20195;-59
2022/12/11 11:46:33;;;;;;;44.60;20.97;;;2.70;99.90;;;;;;5070896;28;20216;-59
2022/12/11 11:49:19;;;;;;;42.90;20.73;;;2.90;99.90;;;;;;5070803;28;20176;-59
2022/12/11 11:51:56;;;;;;;70.13;29.57;;;2.30;99.90;;;;;;5051775;28;20231;-59
2022/12/11 11:54:33;;;;;;;43.43;22.70;;;2.80;99.90;;;;;;5054968;28;20169;-59
2022/12/11 11:57:10;;;;;;;48.50;21.63;;;2.70;99.90;;;;;;5054979;28;20165;-59
2022/12/11 11:59:46;;;;;;;48.27;22.47;;;2.60;99.90;;;;;;5055003;28;20169;-59
2022/12/11 12:02:16;;;;;;;47.00;21.10;;;2.50;99.90;;;;;;5054756;28;20157;-59
2022/12/11 12:04:43;;;;;;;57.67;27.17;;;2.90;99.90;;;;;;5054724;28;20195;-59
2022/12/11 12:07:44;;;;;;;47.27;20.97;;;2.80;99.90;;;;;;5058065;28;20262;-59
2022/12/11 12:10:15;;;;;;;48.60;21.83;;;3.20;99.90;;;;;;5074415;28;20191;-59
2022/12/11 12:13:04;;;;;;;52.83;24.93;;;3.20;99.90;;;;;;5078675;28;20251;-60
2022/12/11 12:15:50;;;;;;;50.33;24.93;;;2.80;99.90;;;;;;5094788;28;20596;-60
2022/12/11 12:18:44;;;;;;;53.77;26.37;;;2.70;99.90;;;;;;5094796;28;20646;-60
2022/12/11 12:21:26;;;;;;;53.93;24.40;;;3.00;99.90;;;;;;5086953;28;20718;-60
2022/12/11 12:24:25;;;;;;;51.00;26.23;;;2.90;99.90;;;;;;5094739;28;20171;-61
2022/12/11 12:26:53;;;;;;;49.33;23.10;;;2.90;99.90;;;;;;5054273;28;20217;-60
2022/12/11 12:29:53;;;;;;;50.47;23.33;;;3.30;99.90;;;;;;5054257;28;20173;-60
2022/12/11 12:32:46;;;;;;;44.17;20.77;;;3.40;99.90;;;;;;5054418;28;20177;-59
2022/12/11 12:35:12;;;;;;;47.53;20.57;;;3.00;99.90;;;;;;5053921;28;20220;-59
2022/12/11 12:37:45;;;;;;;42.47;20.40;;;3.10;99.90;;;;;;5066010;28;20655;-60
2022/12/11 12:40:21;;;;;;;43.00;19.03;;;3.00;99.90;;;;;;5073878;28;20165;-60
2022/12/11 12:43:09;;;;;;;45.07;19.97;;;3.20;99.90;;;;;;5074003;28;20183;-60
2022/12/11 12:45:46;;;;;;;40.63;20.40;;;3.30;99.90;;;;;;5073469;28;20236;-59
2022/12/11 12:48:12;;;;;;;44.00;20.00;;;;;;;;;;5073599;28;20168;-59
2022/12/11 12:50:43;;;;;;;46.93;20.77;;;3.00;99.90;;;;;;5074081;28;20191;-60
2022/12/11 12:53:21;;;;;;;42.60;19.20;;;3.20;99.90;;;;;;5073369;28;20169;-59
2022/12/11 12:55:48;;;;;;;35.47;16.60;;;3.30;99.90;;;;;;5074000;28;20191;-60
2022/12/11 12:58:41;;;;;;;41.63;18.40;;;3.30;99.90;;;;;;5073280;28;20195;-58
2022/12/11 13:01:28;;;;;;;42.13;18.40;;;3.10;99.90;;;;;;5072827;28;20168;-59
2022/12/11 13:04:05;;;;;;;40.27;18.50;;;3.30;99.90;;;;;;5052549;28;20188;-59
2022/12/11 13:06:41;;;;;;;35.83;18.13;;;3.30;99.90;;;;;;5068711;28;20208;-59
2022/12/11 13:09:22;;;;;;;65.27;24.53;;;3.10;99.90;;;;;;5073315;28;20172;-59
2022/12/11 13:11:52;;;;;;;44.40;19.30;;;3.30;99.90;;;;;;5073205;28;20198;-59
2022/12/11 13:14:18;;;;;;;40.53;18.60;;;3.10;99.90;;;;;;5073367;28;20203;-60
2022/12/11 13:16:46;;;;;;;48.00;21.90;;;3.20;99.90;;;;;;5067316;28;20581;-60
2022/12/11 13:19:26;;;;;;;39.67;19.97;;;3.10;99.90;;;;;;5073155;28;20223;-60
2022/12/11 13:22:13;;;;;;;88.40;34.03;;;3.40;99.90;;;;;;5056703;28;20185;-60
2022/12/11 13:24:50;;;;;;;56.63;24.53;;;3.40;99.90;;;;;;5072943;28;20208;-60
2022/12/11 13:27:42;;;;;;;41.03;20.03;;;3.30;99.90;;;;;;5072712;28;20207;-60
2022/12/11 13:30:14;;;;;;;47.27;20.07;;;3.20;99.90;;;;;;5070154;28;20180;-60